createdAt,value
2023-05-25T00:01:01.839Z,0.00
2023-05-25T00:02:57.957Z,0.00
2023-05-25T00:03:57.870Z,0.00
2023-05-25T00:06:02.369Z,0.00
2023-05-25T00:07:01.830Z,0.00
2023-05-25T00:08:54.787Z,0.00
2023-05-25T00:09:54.772Z,0.00
2023-05-25T00:11:59.307Z,0.00
2023-05-25T00:12:58.795Z,0.00
2023-05-25T00:13:58.816Z,0.00
2023-05-25T00:14:58.896Z,0.00
2023-05-25T00:15:58.874Z,0.00
2023-05-25T00:16:58.939Z,0.00
2023-05-25T00:17:58.928Z,0.00
2023-05-25T00:18:58.932Z,0.00
2023-05-25T00:19:58.968Z,0.00
2023-05-25T00:20:58.975Z,0.00
2023-05-25T00:21:58.999Z,0.00
2023-05-25T00:22:59.025Z,0.00
2023-05-25T00:23:59.073Z,0.00
2023-05-25T00:24:59.071Z,0.00
2023-05-25T00:25:59.094Z,0.00
2023-05-25T00:26:59.119Z,0.00
2023-05-25T00:27:59.143Z,0.00
2023-05-25T00:28:59.165Z,0.00
2023-05-25T00:29:59.192Z,0.00
2023-05-25T00:30:59.251Z,0.00
2023-05-25T00:31:59.233Z,0.00
2023-05-25T00:32:59.296Z,0.00
2023-05-25T00:33:59.278Z,0.00
2023-05-25T00:34:59.307Z,0.00
2023-05-25T00:35:59.336Z,0.00
2023-05-25T00:36:59.378Z,0.00
2023-05-25T00:37:59.376Z,0.00
2023-05-25T00:38:59.394Z,0.00
2023-05-25T00:39:59.430Z,0.00
2023-05-25T00:40:59.453Z,0.00
2023-05-25T00:41:59.478Z,0.00
2023-05-25T00:42:59.494Z,0.00
2023-05-25T00:43:59.513Z,0.00
2023-05-25T00:44:59.534Z,0.00
2023-05-25T00:45:59.659Z,0.00
2023-05-25T00:46:59.686Z,0.00
2023-05-25T00:47:59.616Z,0.00
2023-05-25T00:48:59.626Z,0.00
2023-05-25T00:49:59.662Z,0.00
2023-05-25T00:50:59.678Z,0.00
2023-05-25T00:51:59.692Z,0.00
2023-05-25T00:52:59.734Z,0.00
2023-05-25T00:53:59.740Z,0.00
2023-05-25T00:54:59.764Z,0.00
2023-05-25T00:55:59.812Z,0.00
2023-05-25T00:56:59.834Z,0.00
2023-05-25T00:57:59.829Z,0.00
2023-05-25T00:58:59.858Z,0.00
2023-05-25T00:59:59.888Z,0.00
2023-05-25T01:00:59.902Z,0.00
2023-05-25T01:01:59.969Z,0.00
2023-05-25T01:03:00.106Z,0.00
2023-05-25T01:03:59.995Z,0.00
2023-05-25T01:05:00.022Z,0.00
2023-05-25T01:06:00.015Z,0.00
2023-05-25T01:07:00.045Z,0.00
2023-05-25T01:08:00.090Z,0.00
2023-05-25T01:09:00.109Z,0.00
2023-05-25T01:10:00.203Z,0.00
2023-05-25T01:11:00.153Z,0.00
2023-05-25T01:12:00.156Z,0.00
2023-05-25T01:13:00.172Z,0.00
2023-05-25T01:14:00.197Z,0.00
2023-05-25T01:15:00.219Z,0.00
2023-05-25T01:16:00.296Z,0.00
2023-05-25T01:17:00.257Z,0.00
2023-05-25T01:18:00.300Z,0.00
2023-05-25T01:19:00.305Z,0.00
2023-05-25T01:21:00.423Z,0.00
2023-05-25T01:22:00.376Z,0.00
2023-05-25T01:23:00.416Z,0.00
2023-05-25T01:24:00.420Z,0.00
2023-05-25T01:25:00.439Z,0.00
2023-05-25T01:26:00.463Z,0.00
2023-05-25T01:27:00.481Z,0.00
2023-05-25T01:28:00.505Z,0.00
2023-05-25T01:29:00.536Z,0.00
2023-05-25T01:30:00.557Z,0.00
2023-05-25T01:31:00.579Z,0.00
2023-05-25T01:32:00.685Z,0.00
2023-05-25T01:33:00.678Z,0.00
2023-05-25T01:34:00.642Z,0.00
2023-05-25T01:35:00.684Z,0.00
2023-05-25T01:36:00.686Z,0.00
2023-05-25T01:37:00.707Z,0.00
2023-05-25T01:38:00.732Z,0.00
2023-05-25T01:39:00.753Z,0.00
2023-05-25T01:40:00.772Z,0.00
2023-05-25T01:41:00.835Z,0.00
2023-05-25T01:42:00.820Z,0.00
2023-05-25T01:43:00.839Z,0.00
2023-05-25T01:44:00.873Z,0.00
2023-05-25T01:45:00.893Z,0.00
2023-05-25T01:46:00.987Z,0.00
2023-05-25T01:47:00.935Z,0.00
2023-05-25T01:48:01.007Z,0.00
2023-05-25T01:49:00.974Z,0.00
2023-05-25T01:50:00.994Z,0.00
2023-05-25T01:51:01.052Z,0.00
2023-05-25T01:52:01.052Z,0.00
2023-05-25T01:53:01.058Z,0.00
2023-05-25T01:54:01.095Z,0.00
2023-05-25T01:55:01.131Z,0.00
2023-05-25T01:56:01.131Z,0.00
2023-05-25T01:57:01.153Z,0.00
2023-05-25T01:58:01.174Z,0.00
2023-05-25T01:59:01.195Z,0.00
2023-05-25T02:00:01.218Z,0.00
2023-05-25T02:01:01.278Z,0.00
2023-05-25T02:02:01.323Z,0.00
2023-05-25T02:03:01.435Z,0.00
2023-05-25T02:04:01.355Z,0.00
2023-05-25T02:05:01.340Z,0.00
2023-05-25T02:06:01.349Z,0.00
2023-05-25T02:07:01.383Z,0.00
2023-05-25T02:08:01.397Z,0.00
2023-05-25T02:09:01.413Z,0.00
2023-05-25T02:10:01.444Z,0.00
2023-05-25T02:11:01.462Z,0.00
2023-05-25T02:12:01.502Z,0.00
2023-05-25T02:13:01.509Z,0.00
2023-05-25T02:14:01.528Z,0.00
2023-05-25T02:15:01.577Z,0.00
2023-05-25T02:16:01.612Z,0.00
2023-05-25T02:17:01.599Z,0.00
2023-05-25T02:18:01.680Z,0.00
2023-05-25T02:19:01.639Z,0.00
2023-05-25T02:20:01.738Z,0.00
2023-05-25T02:21:01.692Z,0.00
2023-05-25T02:22:01.713Z,0.00
2023-05-25T02:23:01.733Z,0.00
2023-05-25T02:24:01.752Z,0.00
2023-05-25T02:25:01.774Z,0.00
2023-05-25T02:26:01.799Z,0.00
2023-05-25T02:27:01.825Z,0.00
2023-05-25T02:28:01.841Z,0.00
2023-05-25T02:29:01.868Z,0.00
2023-05-25T02:30:01.903Z,0.00
2023-05-25T02:31:01.971Z,0.00
2023-05-25T02:32:01.928Z,0.00
2023-05-25T02:33:01.979Z,0.00
2023-05-25T02:34:01.970Z,0.00
2023-05-25T02:35:02.001Z,0.00
2023-05-25T02:36:02.027Z,4.00
2023-05-25T02:37:02.044Z,4.00
2023-05-25T02:38:02.068Z,4.00
2023-05-25T02:39:02.092Z,0.00
2023-05-25T02:40:02.106Z,4.00
2023-05-25T02:41:02.142Z,4.00
2023-05-25T02:42:02.162Z,4.00
2023-05-25T02:43:02.169Z,4.00
2023-05-25T02:44:02.193Z,4.00
2023-05-25T02:45:02.208Z,4.00
2023-05-25T02:46:02.235Z,8.00
2023-05-25T02:47:02.517Z,8.00
2023-05-25T02:48:02.435Z,8.00
2023-05-25T02:49:02.330Z,8.00
2023-05-25T02:50:02.329Z,12.00
2023-05-25T02:51:02.341Z,12.00
2023-05-25T02:52:02.378Z,12.00
2023-05-25T02:53:02.388Z,12.00
2023-05-25T02:54:02.411Z,20.00
2023-05-25T02:55:02.430Z,20.00
2023-05-25T02:56:02.454Z,24.00
2023-05-25T02:57:02.475Z,24.00
2023-05-25T02:58:02.502Z,28.00
2023-05-25T02:59:02.516Z,32.00
2023-05-25T03:00:02.542Z,36.00
2023-05-25T03:01:02.586Z,40.00
2023-05-25T03:02:02.586Z,48.00
2023-05-25T03:03:02.669Z,52.00
2023-05-25T03:04:02.685Z,56.00
2023-05-25T03:05:04.383Z,64.00
2023-05-25T03:06:02.664Z,72.00
2023-05-25T03:07:02.687Z,76.00
2023-05-25T03:08:02.723Z,88.00
2023-05-25T03:09:02.735Z,96.00
2023-05-25T03:10:02.753Z,104.00
2023-05-25T03:11:02.796Z,116.00
2023-05-25T03:12:02.797Z,128.00
2023-05-25T03:13:02.820Z,140.00
2023-05-25T03:14:02.871Z,152.00
2023-05-25T03:15:02.864Z,164.00
2023-05-25T03:16:02.888Z,180.00
2023-05-25T03:17:03.174Z,196.00
2023-05-25T03:18:02.942Z,212.00
2023-05-25T03:19:02.951Z,228.00
2023-05-25T03:20:03.034Z,244.00
2023-05-25T03:21:03.004Z,264.00
2023-05-25T03:22:03.022Z,288.00
2023-05-25T03:23:03.035Z,308.00
2023-05-25T03:24:03.056Z,332.00
2023-05-25T03:25:03.108Z,356.00
2023-05-25T03:26:03.102Z,380.00
2023-05-25T03:27:03.128Z,408.00
2023-05-25T03:28:03.147Z,436.00
2023-05-25T03:29:03.166Z,464.00
2023-05-25T03:30:03.200Z,496.00
2023-05-25T03:31:03.220Z,528.00
2023-05-25T03:32:03.306Z,560.00
2023-05-25T03:33:03.308Z,596.00
2023-05-25T03:34:03.275Z,628.00
2023-05-25T03:35:03.315Z,672.00
2023-05-25T03:36:03.324Z,708.00
2023-05-25T03:37:03.342Z,748.00
2023-05-25T03:38:03.379Z,792.00
2023-05-25T03:39:03.403Z,832.00
2023-05-25T03:40:03.408Z,876.00
2023-05-25T03:41:03.439Z,920.00
2023-05-25T03:42:03.487Z,968.00
2023-05-25T03:43:03.498Z,1016.00
2023-05-25T03:44:03.501Z,1064.00
2023-05-25T03:45:03.512Z,1116.00
2023-05-25T03:46:03.598Z,1160.00
2023-05-25T03:47:03.561Z,1212.00
2023-05-25T03:48:03.630Z,1272.00
2023-05-25T03:49:03.599Z,1352.00
2023-05-25T03:50:03.627Z,1452.00
2023-05-25T03:51:03.642Z,1524.00
2023-05-25T03:52:03.667Z,1592.00
2023-05-25T03:53:03.685Z,1664.00
2023-05-25T03:54:03.735Z,1740.00
2023-05-25T03:55:03.749Z,1816.00
2023-05-25T03:56:03.758Z,1896.00
2023-05-25T03:57:03.794Z,1972.00
2023-05-25T03:58:03.809Z,2048.00
2023-05-25T03:59:03.900Z,2120.00
2023-05-25T04:00:03.840Z,2200.00
2023-05-25T04:01:05.284Z,2276.00
2023-05-25T04:02:03.896Z,2364.00
2023-05-25T04:03:04.019Z,2448.00
2023-05-25T04:04:03.973Z,2528.00
2023-05-25T04:05:03.957Z,2616.00
2023-05-25T04:06:03.989Z,2704.00
2023-05-25T04:07:03.999Z,2800.00
2023-05-25T04:08:04.023Z,2892.00
2023-05-25T04:09:04.038Z,2984.00
2023-05-25T04:10:04.064Z,3088.00
2023-05-25T04:11:04.089Z,3184.00
2023-05-25T04:12:04.117Z,3288.00
2023-05-25T04:13:04.153Z,3396.00
2023-05-25T04:14:04.166Z,3512.00
2023-05-25T04:15:04.197Z,3624.00
2023-05-25T04:16:04.224Z,3732.00
2023-05-25T04:17:04.230Z,3844.00
2023-05-25T04:18:04.273Z,3940.00
2023-05-25T04:19:04.277Z,4032.00
2023-05-25T04:20:04.342Z,4132.00
2023-05-25T04:21:04.326Z,4252.00
2023-05-25T04:22:04.358Z,4364.00
2023-05-25T04:23:04.411Z,4492.00
2023-05-25T04:24:04.404Z,4600.00
2023-05-25T04:25:04.424Z,4700.00
2023-05-25T04:26:04.445Z,4804.00
2023-05-25T04:27:04.468Z,4908.00
2023-05-25T04:28:04.494Z,5012.00
2023-05-25T04:29:04.535Z,5136.00
2023-05-25T04:30:04.544Z,5248.00
2023-05-25T04:31:04.600Z,5376.00
2023-05-25T04:32:04.757Z,5516.00
2023-05-25T04:33:04.689Z,5632.00
2023-05-25T04:34:04.638Z,5768.00
2023-05-25T04:35:04.664Z,5892.00
2023-05-25T04:36:04.687Z,6004.00
2023-05-25T04:37:04.715Z,6128.00
2023-05-25T04:38:04.744Z,6224.00
2023-05-25T04:39:04.765Z,6348.00
2023-05-25T04:40:04.795Z,6492.00
2023-05-25T04:41:04.814Z,6608.00
2023-05-25T04:42:05.135Z,6748.00
2023-05-25T04:43:04.868Z,6924.00
2023-05-25T04:44:09.890Z,7096.00
2023-05-25T04:45:04.919Z,7240.00
2023-05-25T04:46:04.992Z,7436.00
2023-05-25T04:47:04.974Z,7732.00
2023-05-25T04:48:05.078Z,8068.00
2023-05-25T04:49:05.036Z,8356.00
2023-05-25T04:50:05.052Z,8640.00
2023-05-25T04:51:05.088Z,9056.00
2023-05-25T04:52:05.118Z,9556.00
2023-05-25T04:53:05.130Z,10116.00
2023-05-25T04:54:05.173Z,10844.00
2023-05-25T04:55:05.186Z,12008.00
2023-05-25T04:56:05.209Z,13792.00
2023-05-25T04:57:05.248Z,15648.00
2023-05-25T04:58:05.259Z,16800.00
2023-05-25T04:59:05.286Z,16544.00
2023-05-25T05:00:05.320Z,14816.00
2023-05-25T05:01:05.347Z,13664.00
2023-05-25T05:02:05.368Z,13164.00
2023-05-25T05:03:05.519Z,12764.00
2023-05-25T05:04:05.496Z,12140.00
2023-05-25T05:05:05.454Z,11708.00
2023-05-25T05:06:05.476Z,11500.00
2023-05-25T05:07:05.513Z,11464.00
2023-05-25T05:08:05.535Z,11632.00
2023-05-25T05:09:05.563Z,11916.00
2023-05-25T05:10:05.587Z,11828.00
2023-05-25T05:11:05.626Z,11780.00
2023-05-25T05:12:05.640Z,12180.00
2023-05-25T05:13:05.682Z,12128.00
2023-05-25T05:14:05.700Z,12156.00
2023-05-25T05:15:05.728Z,12180.00
2023-05-25T05:16:05.788Z,12216.00
2023-05-25T05:17:05.954Z,12252.00
2023-05-25T05:18:05.852Z,12300.00
2023-05-25T05:19:05.867Z,12404.00
2023-05-25T05:20:05.882Z,12216.00
2023-05-25T05:21:05.897Z,12364.00
2023-05-25T05:22:05.948Z,12532.00
2023-05-25T05:23:05.954Z,12628.00
2023-05-25T05:24:05.980Z,12580.00
2023-05-25T05:25:06.017Z,12596.00
2023-05-25T05:26:06.040Z,12944.00
2023-05-25T05:27:06.067Z,13036.00
2023-05-25T05:28:06.106Z,13200.00
2023-05-25T05:29:06.132Z,13424.00
2023-05-25T05:30:06.152Z,13916.00
2023-05-25T05:31:06.213Z,15008.00
2023-05-25T05:32:06.213Z,15152.00
2023-05-25T05:33:06.297Z,14464.00
2023-05-25T05:34:06.332Z,15616.00
2023-05-25T05:35:06.309Z,16288.00
2023-05-25T05:36:06.326Z,15808.00
2023-05-25T05:37:06.372Z,14316.00
2023-05-25T05:38:06.388Z,16832.00
2023-05-25T05:39:06.437Z,16448.00
2023-05-25T05:40:06.454Z,21088.00
2023-05-25T05:41:06.471Z,17856.00
2023-05-25T05:42:06.515Z,14624.00
2023-05-25T05:43:06.536Z,18560.00
2023-05-25T05:44:06.555Z,23104.00
2023-05-25T05:45:06.589Z,16224.00
2023-05-25T05:46:06.647Z,19520.00
2023-05-25T05:47:06.647Z,18400.00
2023-05-25T05:48:06.703Z,12216.00
2023-05-25T05:49:06.709Z,8448.00
2023-05-25T05:50:06.740Z,8064.00
2023-05-25T05:51:06.789Z,7164.00
2023-05-25T05:52:06.802Z,6732.00
2023-05-25T05:53:06.830Z,6388.00
2023-05-25T05:54:06.850Z,6120.00
2023-05-25T05:55:06.910Z,5768.00
2023-05-25T05:56:06.921Z,6220.00
2023-05-25T05:57:06.958Z,6180.00
2023-05-25T05:58:06.975Z,6420.00
2023-05-25T05:59:06.997Z,6456.00
2023-05-25T06:00:07.146Z,6748.00
2023-05-25T06:01:07.055Z,6416.00
2023-05-25T06:02:07.116Z,6380.00
2023-05-25T06:03:07.112Z,5996.00
2023-05-25T06:04:07.136Z,5872.00
2023-05-25T06:05:07.203Z,6468.00
2023-05-25T06:06:07.220Z,6276.00
2023-05-25T06:07:07.216Z,6056.00
2023-05-25T06:08:07.422Z,5884.00
2023-05-25T06:09:07.288Z,5940.00
2023-05-25T06:10:07.287Z,5908.00
2023-05-25T06:11:07.326Z,5736.00
2023-05-25T06:12:07.343Z,5660.00
2023-05-25T06:13:07.393Z,5464.00
2023-05-25T06:14:07.406Z,5376.00
2023-05-25T06:15:07.425Z,5384.00
2023-05-25T06:16:07.498Z,5348.00
2023-05-25T06:17:07.512Z,5496.00
2023-05-25T06:18:07.573Z,5488.00
2023-05-25T06:19:07.524Z,5288.00
2023-05-25T06:20:07.599Z,5496.00
2023-05-25T06:21:07.583Z,5772.00
2023-05-25T06:22:07.603Z,5752.00
2023-05-25T06:23:07.790Z,5484.00
2023-05-25T06:24:07.669Z,5304.00
2023-05-25T06:25:07.690Z,5556.00
2023-05-25T06:26:07.702Z,5724.00
2023-05-25T06:27:07.743Z,5664.00
2023-05-25T06:28:07.763Z,5728.00
2023-05-25T06:29:07.778Z,5472.00
2023-05-25T06:30:07.796Z,5472.00
2023-05-25T06:31:07.823Z,5428.00
2023-05-25T06:32:07.982Z,5756.00
2023-05-25T06:33:07.956Z,5828.00
2023-05-25T06:34:07.900Z,5684.00
2023-05-25T06:35:08.224Z,5460.00
2023-05-25T06:36:07.953Z,5392.00
2023-05-25T06:37:07.974Z,5408.00
2023-05-25T06:38:08.005Z,5436.00
2023-05-25T06:39:08.061Z,5564.00
2023-05-25T06:40:08.052Z,5364.00
2023-05-25T06:41:08.070Z,5188.00
2023-05-25T06:42:08.116Z,5092.00
2023-05-25T06:43:08.139Z,5148.00
2023-05-25T06:44:08.164Z,5316.00
2023-05-25T06:45:08.171Z,5600.00
2023-05-25T06:46:08.254Z,5492.00
2023-05-25T06:47:08.222Z,5292.00
2023-05-25T06:48:08.299Z,5412.00
2023-05-25T06:49:08.274Z,5772.00
2023-05-25T06:50:08.296Z,6016.00
2023-05-25T06:51:08.330Z,6252.00
2023-05-25T06:52:08.345Z,6184.00
2023-05-25T06:53:08.371Z,6568.00
2023-05-25T06:54:08.399Z,6736.00
2023-05-25T06:55:08.621Z,6348.00
2023-05-25T06:56:08.449Z,6380.00
2023-05-25T06:57:08.467Z,6224.00
2023-05-25T06:58:08.495Z,5956.00
2023-05-25T06:59:08.543Z,6208.00
2023-05-25T07:00:08.557Z,6208.00
2023-05-25T07:01:08.587Z,6084.00
2023-05-25T07:02:08.595Z,6020.00
2023-05-25T07:03:08.699Z,6532.00
2023-05-25T07:04:08.648Z,7468.00
2023-05-25T07:05:08.732Z,8116.00
2023-05-25T07:06:08.695Z,8072.00
2023-05-25T07:07:08.723Z,8296.00
2023-05-25T07:08:08.762Z,8228.00
2023-05-25T07:09:08.773Z,8348.00
2023-05-25T07:10:08.792Z,8240.00
2023-05-25T07:11:08.820Z,7984.00
2023-05-25T07:12:08.848Z,7440.00
2023-05-25T07:13:08.872Z,7124.00
2023-05-25T07:14:08.895Z,6956.00
2023-05-25T07:15:08.922Z,7240.00
2023-05-25T07:16:08.984Z,7052.00
2023-05-25T07:17:08.985Z,6600.00
2023-05-25T07:18:09.026Z,6748.00
2023-05-25T07:19:09.027Z,6808.00
2023-05-25T07:20:09.086Z,6636.00
2023-05-25T07:21:09.069Z,6600.00
2023-05-25T07:22:09.094Z,6796.00
2023-05-25T07:23:09.122Z,7452.00
2023-05-25T07:24:09.145Z,8268.00
2023-05-25T07:25:09.176Z,8404.00
2023-05-25T07:26:09.218Z,7904.00
2023-05-25T07:27:09.224Z,7488.00
2023-05-25T07:28:09.252Z,7352.00
2023-05-25T07:29:09.271Z,7616.00
2023-05-25T07:30:09.325Z,7612.00
2023-05-25T07:31:09.349Z,7752.00
2023-05-25T07:32:09.341Z,7748.00
2023-05-25T07:33:09.431Z,7608.00
2023-05-25T07:34:09.404Z,7604.00
2023-05-25T07:35:09.428Z,7732.00
2023-05-25T07:36:09.442Z,7828.00
2023-05-25T07:37:09.481Z,7780.00
2023-05-25T07:38:09.502Z,7988.00
2023-05-25T07:39:09.522Z,8732.00
2023-05-25T07:40:09.556Z,9460.00
2023-05-25T07:41:09.570Z,9204.00
2023-05-25T07:42:09.595Z,8768.00
2023-05-25T07:43:09.629Z,8444.00
2023-05-25T07:44:09.759Z,8648.00
2023-05-25T07:45:09.673Z,8956.00
2023-05-25T07:46:09.704Z,9656.00
2023-05-25T07:47:09.784Z,9008.00
2023-05-25T07:48:09.833Z,8588.00
2023-05-25T07:49:09.775Z,8504.00
2023-05-25T07:50:09.798Z,8700.00
2023-05-25T07:51:09.824Z,8224.00
2023-05-25T07:52:09.872Z,7356.00
2023-05-25T07:53:09.871Z,7196.00
2023-05-25T07:54:09.917Z,7052.00
2023-05-25T07:55:09.988Z,6888.00
2023-05-25T07:56:10.808Z,6888.00
2023-05-25T07:57:09.989Z,6916.00
2023-05-25T07:58:10.004Z,6868.00
2023-05-25T07:59:10.050Z,7048.00
2023-05-25T08:00:10.057Z,7584.00
2023-05-25T08:01:10.083Z,7344.00
2023-05-25T08:02:10.143Z,7124.00
2023-05-25T08:03:10.247Z,6792.00
2023-05-25T08:04:10.345Z,6496.00
2023-05-25T08:05:10.319Z,6372.00
2023-05-25T08:06:10.204Z,6328.00
2023-05-25T08:07:10.229Z,6608.00
2023-05-25T08:08:10.258Z,7320.00
2023-05-25T08:09:10.281Z,8000.00
2023-05-25T08:10:10.315Z,8648.00
2023-05-25T08:11:10.331Z,10052.00
2023-05-25T08:12:26.917Z,10416.00
2023-05-25T08:13:10.378Z,10440.00
2023-05-25T08:14:10.410Z,9652.00
2023-05-25T08:15:10.433Z,9020.00
2023-05-25T08:16:10.465Z,8144.00
2023-05-25T08:17:10.520Z,7764.00
2023-05-25T08:18:10.547Z,8080.00
2023-05-25T08:19:10.527Z,8200.00
2023-05-25T08:20:10.706Z,8064.00
2023-05-25T08:21:10.578Z,8272.00
2023-05-25T08:22:10.603Z,8900.00
2023-05-25T08:23:10.631Z,10528.00
2023-05-25T08:24:10.654Z,11448.00
2023-05-25T08:25:10.686Z,11132.00
2023-05-25T08:26:24.452Z,11288.00
2023-05-25T08:27:10.734Z,12132.00
2023-05-25T08:28:10.761Z,11920.00
2023-05-25T08:29:10.783Z,11408.00
2023-05-25T08:30:10.822Z,11124.00
2023-05-25T08:31:10.860Z,10612.00
2023-05-25T08:32:10.862Z,10376.00
2023-05-25T08:33:10.918Z,10728.00
2023-05-25T08:34:10.923Z,10700.00
2023-05-25T08:35:10.994Z,10944.00
2023-05-25T08:36:10.972Z,11728.00
2023-05-25T08:37:10.996Z,12908.00
2023-05-25T08:38:11.021Z,13852.00
2023-05-25T08:39:11.053Z,14200.00
2023-05-25T08:40:11.072Z,13896.00
2023-05-25T08:41:11.111Z,14140.00
2023-05-25T08:42:11.187Z,14512.00
2023-05-25T08:43:11.147Z,14584.00
2023-05-25T08:44:11.177Z,15368.00
2023-05-25T08:45:19.642Z,16204.00
2023-05-25T08:46:11.238Z,16460.00
2023-05-25T08:47:11.262Z,16168.00
2023-05-25T08:48:12.139Z,15988.00
2023-05-25T08:49:11.504Z,14652.00
2023-05-25T08:50:11.341Z,13152.00
2023-05-25T08:51:12.123Z,13456.00
2023-05-25T08:52:11.413Z,13756.00
2023-05-25T08:53:11.440Z,13368.00
2023-05-25T08:54:11.444Z,13544.00
2023-05-25T08:55:11.472Z,13996.00
2023-05-25T08:56:11.505Z,13500.00
2023-05-25T08:57:11.529Z,12772.00
2023-05-25T08:58:11.562Z,13528.00
2023-05-25T08:59:11.576Z,13476.00
2023-05-25T09:00:11.638Z,13124.00
2023-05-25T09:01:11.630Z,12720.00
2023-05-25T09:02:11.704Z,10752.00
2023-05-25T09:03:11.789Z,9508.00
2023-05-25T09:04:11.837Z,9200.00
2023-05-25T09:05:11.763Z,9552.00
2023-05-25T09:06:11.767Z,9944.00
2023-05-25T09:07:11.900Z,9528.00
2023-05-25T09:08:11.825Z,9268.00
2023-05-25T09:09:11.845Z,8744.00
2023-05-25T09:10:11.882Z,8672.00
2023-05-25T09:12:11.940Z,8044.00
2023-05-25T09:13:20.388Z,7752.00
2023-05-25T09:14:11.977Z,7740.00
2023-05-25T09:15:12.004Z,8860.00
2023-05-25T09:16:12.119Z,9080.00
2023-05-25T09:17:12.057Z,9548.00
2023-05-25T09:18:13.097Z,9680.00
2023-05-25T09:19:13.436Z,9696.00
2023-05-25T09:20:12.162Z,10424.00
2023-05-25T09:21:12.179Z,11416.00
2023-05-25T09:22:15.664Z,12536.00
2023-05-25T09:23:12.221Z,13416.00
2023-05-25T09:24:12.249Z,13976.00
2023-05-25T09:25:12.278Z,14776.00
2023-05-25T09:26:12.305Z,14364.00
2023-05-25T09:27:12.327Z,13444.00
2023-05-25T09:29:12.395Z,11624.00
2023-05-25T09:30:12.411Z,10936.00
2023-05-25T09:31:12.443Z,10904.00
2023-05-25T09:32:12.533Z,10944.00
2023-05-25T09:33:12.529Z,11024.00
2023-05-25T09:34:12.522Z,11236.00
2023-05-25T09:35:12.554Z,12228.00
2023-05-25T09:36:12.746Z,13176.00
2023-05-25T09:37:20.157Z,13308.00
2023-05-25T09:39:17.344Z,14132.00
2023-05-25T09:40:17.636Z,15116.00
2023-05-25T09:42:20.709Z,16864.00
2023-05-25T09:43:36.334Z,17216.00
2023-05-25T09:45:14.226Z,18976.00
2023-05-25T09:46:13.925Z,19264.00
2023-05-25T09:48:06.921Z,17920.00
2023-05-25T09:49:06.873Z,17536.00
2023-05-25T09:51:00.794Z,18112.00
2023-05-25T09:52:00.042Z,17760.00
2023-05-25T09:54:04.096Z,18336.00
2023-05-25T09:55:04.087Z,18848.00
2023-05-25T09:57:09.145Z,19552.00
2023-05-25T09:58:08.145Z,19136.00
2023-05-25T10:00:12.241Z,15824.00
2023-05-25T10:01:12.252Z,12532.00
2023-05-25T10:03:16.796Z,11428.00
2023-05-25T10:04:16.559Z,13620.00
2023-05-25T10:06:20.536Z,12908.00
2023-05-25T10:07:20.511Z,12136.00
2023-05-25T10:09:25.033Z,10696.00
2023-05-25T10:10:24.557Z,9896.00
2023-05-25T10:12:28.633Z,9756.00
2023-05-25T10:13:28.614Z,9380.00
2023-05-25T10:15:22.147Z,10168.00
2023-05-25T10:16:21.790Z,10716.00
2023-05-25T10:18:14.774Z,11320.00
2023-05-25T10:19:14.763Z,11472.00
2023-05-25T10:21:19.287Z,10856.00
2023-05-25T10:22:18.812Z,9828.00
2023-05-25T10:24:22.864Z,8364.00
2023-05-25T10:25:22.852Z,7968.00
2023-05-25T10:27:28.141Z,7172.00
2023-05-25T10:28:26.931Z,7168.00
2023-05-25T10:30:20.066Z,8396.00
2023-05-25T10:31:20.090Z,9388.00
2023-05-25T10:33:24.582Z,11724.00
2023-05-25T10:34:24.103Z,13028.00
2023-05-25T10:36:28.187Z,13844.00
2023-05-25T10:37:28.158Z,14616.00
2023-05-25T10:39:32.669Z,16464.00
2023-05-25T10:40:32.187Z,17184.00
2023-05-25T10:42:36.276Z,17184.00
2023-05-25T10:43:36.251Z,17824.00
2023-05-25T10:45:40.795Z,18272.00
2023-05-25T10:46:40.312Z,17472.00
2023-05-25T10:48:33.274Z,17344.00
2023-05-25T10:49:33.264Z,16592.00
2023-05-25T10:51:37.786Z,17024.00
2023-05-25T10:52:37.315Z,17632.00
2023-05-25T10:54:41.383Z,18816.00
2023-05-25T10:55:41.445Z,19136.00
2023-05-25T10:57:45.915Z,18048.00
2023-05-25T10:58:45.419Z,17312.00
2023-05-25T11:00:49.638Z,15984.00
2023-05-25T11:01:49.575Z,14856.00
2023-05-25T11:03:54.302Z,13060.00
2023-05-25T11:04:53.771Z,12500.00
2023-05-25T11:06:57.837Z,12072.00
2023-05-25T11:07:57.827Z,12032.00
2023-05-25T11:10:02.372Z,12052.00
2023-05-25T11:11:01.869Z,11556.00
2023-05-25T11:13:05.969Z,11480.00
2023-05-25T11:14:05.935Z,11916.00
2023-05-25T11:16:10.497Z,12216.00
2023-05-25T11:17:10.181Z,11816.00
2023-05-25T11:19:14.057Z,11600.00
2023-05-25T11:20:14.123Z,11796.00
2023-05-25T11:22:18.642Z,12356.00
2023-05-25T11:23:18.105Z,12204.00
2023-05-25T11:25:22.188Z,12212.00
2023-05-25T11:26:22.150Z,12608.00
2023-05-25T11:28:15.653Z,13704.00
2023-05-25T11:29:15.108Z,13932.00
2023-05-25T11:31:19.209Z,14052.00
2023-05-25T11:32:19.189Z,14296.00
2023-05-25T11:34:23.671Z,14180.00
2023-05-25T11:35:23.198Z,13500.00
2023-05-25T11:37:27.280Z,13124.00
2023-05-25T11:38:27.265Z,13976.00
2023-05-25T11:40:31.776Z,15932.00
2023-05-25T11:41:31.298Z,16624.00
2023-05-25T11:43:35.366Z,17216.00
2023-05-25T11:44:35.348Z,17536.00
2023-05-25T11:46:39.898Z,18592.00
2023-05-25T11:47:39.432Z,18688.00
2023-05-25T11:49:43.461Z,18624.00
2023-05-25T11:50:43.735Z,18176.00
2023-05-25T11:52:47.988Z,17984.00
2023-05-25T11:53:47.519Z,17120.00
2023-05-25T11:55:55.583Z,16304.00
2023-05-25T11:56:51.574Z,15540.00
2023-05-25T11:59:48.980Z,14848.00
2023-05-25T12:00:48.498Z,14944.00
2023-05-25T12:02:52.717Z,15880.00
2023-05-25T12:03:52.717Z,16116.00
2023-05-25T12:05:57.074Z,14116.00
2023-05-25T12:06:56.616Z,10388.00
2023-05-25T12:08:49.565Z,5312.00
2023-05-25T12:09:49.571Z,5472.00
2023-05-25T12:11:54.134Z,5624.00
2023-05-25T12:12:53.599Z,5860.00
2023-05-25T12:14:59.106Z,6516.00
2023-05-25T12:15:57.680Z,7052.00
2023-05-25T12:17:51.239Z,8508.00
2023-05-25T12:18:50.844Z,10920.00
2023-05-25T12:20:54.910Z,15632.00
2023-05-25T12:21:54.874Z,15572.00
2023-05-25T12:23:59.894Z,14932.00
2023-05-25T12:24:58.913Z,14896.00
2023-05-25T12:27:02.959Z,14092.00
2023-05-25T12:28:02.953Z,14684.00
2023-05-25T12:30:08.997Z,15292.00
2023-05-25T12:31:07.012Z,14860.00
2023-05-25T12:33:11.081Z,14980.00
2023-05-25T12:34:11.045Z,15092.00
2023-05-25T12:36:15.582Z,13948.00
2023-05-25T12:37:15.096Z,13664.00
2023-05-25T12:40:23.174Z,12652.00
2023-05-25T12:41:23.132Z,11900.00
2023-05-25T12:43:27.658Z,10952.00
2023-05-25T12:44:27.173Z,10748.00
2023-05-25T12:46:20.431Z,9336.00
2023-05-25T12:47:20.401Z,9140.00
2023-05-25T12:49:24.853Z,9440.00
2023-05-25T12:50:24.403Z,9948.00
2023-05-25T12:52:28.436Z,8640.00
2023-05-25T12:53:28.444Z,8184.00
2023-05-25T12:55:33.000Z,7128.00
2023-05-25T12:56:32.463Z,7080.00
2023-05-25T12:58:25.480Z,8832.00
2023-05-25T12:59:25.436Z,10496.00
2023-05-25T13:01:29.980Z,14216.00
2023-05-25T13:02:29.494Z,14936.00
2023-05-25T13:04:33.541Z,16104.00
2023-05-25T13:05:33.553Z,15936.00
2023-05-25T13:07:38.054Z,13976.00
2023-05-25T13:08:37.577Z,12120.00
2023-05-25T13:10:41.735Z,11752.00
2023-05-25T13:11:41.612Z,11688.00
2023-05-25T13:13:35.148Z,10692.00
2023-05-25T13:14:34.774Z,10376.00
2023-05-25T13:16:38.903Z,10504.00
2023-05-25T13:17:38.837Z,11016.00
2023-05-25T13:19:43.359Z,12128.00
2023-05-25T13:20:43.285Z,12352.00
2023-05-25T13:22:46.994Z,10876.00
2023-05-25T13:23:46.929Z,9584.00
2023-05-25T13:25:51.461Z,8932.00
2023-05-25T13:26:51.318Z,8980.00
2023-05-25T13:28:43.966Z,10696.00
2023-05-25T13:29:43.933Z,12332.00
2023-05-25T13:31:49.990Z,12796.00
2023-05-25T13:32:50.400Z,11360.00
2023-05-25T13:34:52.032Z,9932.00
2023-05-25T13:35:52.024Z,10028.00
2023-05-25T13:37:56.550Z,10988.00
2023-05-25T13:38:56.072Z,11392.00
2023-05-25T13:41:00.180Z,11212.00
2023-05-25T13:42:00.113Z,11276.00
2023-05-25T13:44:04.665Z,11608.00
2023-05-25T13:45:04.171Z,11812.00
2023-05-25T13:48:01.346Z,12624.00
2023-05-25T13:49:01.127Z,12824.00
2023-05-25T13:51:05.655Z,13024.00
2023-05-25T13:52:05.168Z,13144.00